Time;durP1;ratioP1;P1;durP2;ratioP2;P2;SDS_P1;SDS_P2;PMS_P1;PMS_P2;Temp;Humidity;BMP_temperature;BMP_pressure;BME280_temperature;BME280_humidity;BME280_pressure;Samples;Min_cycle;Max_cycle;Signal;HPM_P1;HPM_P2
2021/10/19 00:00:00;;;;;;;18.63;10.55;;;;;;;19.00;77.21;100856.69;4991707;28;20125;-64
2021/10/19 00:02:29;;;;;;;18.65;10.18;;;;;;;18.97;77.18;100851.69;4992439;28;20078;-63
2021/10/19 00:04:56;;;;;;;25.33;10.75;;;;;;;18.91;77.62;100864.34;4987791;28;20483;-62
2021/10/19 00:07:24;;;;;;;21.35;11.00;;;;;;;18.86;77.44;100856.00;4991108;28;20450;-63
2021/10/19 00:09:50;;;;;;;16.67;10.15;;;;;;;18.83;77.77;100856.63;4981822;28;20073;-64
2021/10/19 00:12:17;;;;;;;17.58;10.32;;;;;;;18.83;77.74;100862.31;4991990;28;20387;-64
2021/10/19 00:14:44;;;;;;;20.77;10.13;;;;;;;18.82;77.59;100864.31;4989729;28;20077;-63
2021/10/19 00:17:11;;;;;;;18.85;11.00;;;;;;;18.73;77.79;100856.94;4988144;28;20082;-63
2021/10/19 00:19:39;;;;;;;22.95;10.32;;;;;;;18.70;77.91;100864.91;4979865;28;20078;-64
2021/10/19 00:22:06;;;;;;;22.35;11.90;;;;;;;18.66;77.71;100861.03;4992269;28;20145;-64
2021/10/19 00:24:33;;;;;;;16.80;9.80;;;;;;;18.61;77.70;100857.56;4985906;28;20184;-64
2021/10/19 00:27:00;;;;;;;21.50;10.02;;;;;;;18.58;78.21;100856.22;4987534;28;20133;-63
2021/10/19 00:29:27;;;;;;;19.88;10.60;;;;;;;18.46;78.28;100858.81;4992007;28;20459;-60
2021/10/19 00:31:54;;;;;;;14.63;8.13;;;;;;;18.48;78.12;100867.81;4986600;28;20089;-63
2021/10/19 00:34:20;;;;;;;32.63;11.85;;;;;;;18.42;78.17;100864.28;4991936;28;20050;-62
2021/10/19 00:36:47;;;;;;;17.35;9.82;;;;;;;18.37;78.46;100861.63;4988688;28;20129;-62
2021/10/19 00:39:15;;;;;;;19.38;10.05;;;;;;;18.31;78.63;100856.44;4986574;28;20070;-62
2021/10/19 00:41:45;;;;;;;20.90;10.52;;;;;;;18.11;78.84;100826.72;4979061;28;20402;-62
2021/10/19 00:44:13;;;;;;;16.33;9.25;;;;;;;18.26;78.55;100843.28;4988714;28;20530;-64
2021/10/19 00:46:41;;;;;;;25.15;12.43;;;;;;;18.19;78.63;100843.75;4991603;28;20454;-62
2021/10/19 00:49:08;;;;;;;19.50;10.00;;;;;;;18.14;79.00;100841.03;4979378;28;20077;-62
2021/10/19 00:51:36;;;;;;;21.05;9.52;;;;;;;17.73;79.41;100779.94;4988016;28;20134;-63
2021/10/19 00:54:03;;;;;;;18.00;8.80;;;;;;;18.09;79.48;100843.19;4988747;28;20141;-64
2021/10/19 00:56:30;;;;;;;16.83;10.10;;;;;;;18.05;79.54;100847.81;4988570;28;20065;-63
2021/10/19 00:58:57;;;;;;;18.30;8.95;;;;;;;18.08;79.38;100847.97;4983846;28;20129;-63
2021/10/19 01:01:25;;;;;;;20.20;9.52;;;;;;;18.12;79.22;100846.19;4987502;28;20577;-62
2021/10/19 01:03:52;;;;;;;15.23;9.20;;;;;;;18.06;78.87;100833.38;4991202;28;20629;-62
2021/10/19 01:06:19;;;;;;;17.42;9.68;;;;;;;18.06;78.94;100839.00;4987497;28;20448;-62
2021/10/19 01:08:46;;;;;;;19.85;9.85;;;;;;;17.96;79.07;100833.63;4987658;28;20096;-63
2021/10/19 01:11:13;;;;;;;18.67;9.95;;;;;;;18.02;79.07;100852.13;4978871;28;20530;-62
2021/10/19 01:13:40;;;;;;;22.08;9.88;;;;;;;18.08;78.60;100856.47;4990727;28;20116;-62
2021/10/19 01:16:09;;;;;;;20.38;10.48;;;;;;;18.02;78.60;100860.59;4980845;28;20529;-61
2021/10/19 01:18:38;;;;;;;17.10;9.00;;;;;;;18.02;78.81;100848.44;4989142;28;20058;-62
2021/10/19 01:21:07;;;;;;;24.13;11.95;;;;;;;18.02;78.80;100846.47;4989290;28;20486;-62
2021/10/19 01:23:34;;;;;;;20.92;8.98;;;;;;;17.99;78.99;100841.47;4988730;28;20133;-62
2021/10/19 01:26:06;;;;;;;16.13;9.18;;;;;;;17.99;78.65;100833.00;4988570;28;20134;-61
2021/10/19 01:28:37;;;;;;;27.42;9.35;;;;;;;17.97;79.24;100846.59;4983604;28;20133;-63
2021/10/19 01:31:05;;;;;;;17.58;9.77;;;;;;;17.90;78.76;100826.44;4984963;28;20078;-63
2021/10/19 01:33:33;;;;;;;16.80;8.82;;;;;;;17.94;79.08;100833.13;4985847;28;20244;-64
2021/10/19 01:36:01;;;;;;;16.95;9.60;;;;;;;17.98;78.76;100839.78;4988488;28;20394;-64
2021/10/19 01:38:29;;;;;;;16.60;9.55;;;;;;;17.92;79.09;100826.97;4985726;28;20046;-66
2021/10/19 01:40:57;;;;;;;22.23;9.52;;;;;;;17.83;78.77;100801.47;4988798;28;20486;-66
2021/10/19 01:43:26;;;;;;;19.17;9.05;;;;;;;17.94;79.09;100821.81;4990317;28;20137;-66
2021/10/19 01:45:56;;;;;;;14.10;7.57;;;;;;;17.88;78.97;100809.84;4985115;28;20050;-65
2021/10/19 01:48:23;;;;;;;;;;;;;;;17.65;79.75;100811.81;4988554;28;20068;-65
2021/10/19 01:50:50;;;;;;;14.82;8.27;;;;;;;17.56;79.82;100796.78;4988505;28;19956;-66
2021/10/19 01:53:19;;;;;;;16.40;7.65;;;;;;;17.63;79.14;100797.16;4989594;28;20186;-65
2021/10/19 01:55:46;;;;;;;15.90;7.45;;;;;;;17.74;79.10;100820.31;4989577;28;20133;-65
2021/10/19 01:58:13;;;;;;;14.65;7.32;;;;;;;17.61;79.17;100805.16;4982312;28;20134;-64
2021/10/19 02:00:41;;;;;;;13.93;8.85;;;;;;;17.70;79.34;100814.50;4986419;28;20078;-64
2021/10/19 02:03:09;;;;;;;15.40;9.02;;;;;;;17.77;79.03;100812.06;4988743;28;20046;-68
2021/10/19 02:05:36;;;;;;;20.15;9.52;;;;;;;17.79;78.65;100811.75;4988419;28;20047;-68
2021/10/19 02:08:04;;;;;;;16.25;9.80;;;;;;;17.66;78.27;100784.41;4993910;28;20137;-64
2021/10/19 02:10:35;;;;;;;14.02;8.27;;;;;;;17.77;78.24;100811.25;4986407;28;20133;-65
2021/10/19 02:13:04;;;;;;;22.25;8.52;;;;;;;17.80;78.36;100812.59;4979186;28;20059;-64
2021/10/19 02:15:32;;;;;;;13.98;8.45;;;;;;;17.80;77.85;100821.06;4988920;28;20086;-67
2021/10/19 02:18:01;;;;;;;19.00;8.85;;;;;;;17.78;78.13;100807.28;4979643;28;20479;-67
2021/10/19 02:20:29;;;;;;;17.05;9.73;;;;;;;17.80;77.97;100810.59;4983357;28;20081;-67
2021/10/19 02:22:56;;;;;;;16.42;8.20;;;;;;;17.90;77.83;100817.97;4991933;28;20072;-67
2021/10/19 02:25:23;;;;;;;17.75;9.68;;;;;;;17.83;77.59;100811.94;4994147;28;20078;-67
2021/10/19 02:27:50;;;;;;;17.17;10.10;;;;;;;17.82;77.42;100793.34;4985842;28;20129;-67
2021/10/19 02:30:18;;;;;;;15.63;8.75;;;;;;;17.95;77.32;100803.72;4990433;28;20078;-68
2021/10/19 02:32:45;;;;;;;20.13;8.90;;;;;;;17.87;77.44;100810.13;4986542;28;20082;-68
2021/10/19 02:35:14;;;;;;;15.25;7.35;;;;;;;17.80;77.49;100798.47;4986770;28;20121;-68
2021/10/19 02:37:42;;;;;;;10.55;6.78;;;;;;;17.68;78.15;100796.22;4988655;28;20042;-69
2021/10/19 02:40:11;;;;;;;15.55;7.93;;;;;;;17.65;78.18;100788.38;4992740;28;20066;-69
2021/10/19 02:42:39;;;;;;;7.05;5.05;;;;;;;17.64;77.87;100793.22;4992819;28;20468;-68
2021/10/19 02:45:07;;;;;;;15.05;8.60;;;;;;;17.63;78.17;100785.88;4987471;28;20045;-69
2021/10/19 02:47:35;;;;;;;9.45;5.82;;;;;;;17.48;77.76;100770.16;4993772;28;20736;-68
2021/10/19 02:50:03;;;;;;;11.25;6.30;;;;;;;17.61;78.01;100784.56;4986110;28;20242;-67
2021/10/19 02:52:30;;;;;;;11.52;6.35;;;;;;;17.55;78.09;100789.47;4989506;28;20043;-67
2021/10/19 02:54:57;;;;;;;13.00;6.38;;;;;;;17.45;78.38;100775.63;4983599;28;20089;-71
2021/10/19 02:57:24;;;;;;;17.95;8.00;;;;;;;17.48;77.92;100772.16;4992720;28;20163;-69
2021/10/19 02:59:51;;;;;;;8.48;4.47;;;;;;;17.43;78.38;100769.47;4991536;28;20097;-66
2021/10/19 03:02:18;;;;;;;11.82;6.63;;;;;;;17.49;77.74;100773.81;4980820;28;20060;-68
2021/10/19 03:04:46;;;;;;;14.73;6.95;;;;;;;17.53;77.76;100775.66;4990119;28;20042;-69
2021/10/19 03:07:13;;;;;;;12.63;6.40;;;;;;;17.48;78.29;100775.81;4988734;28;20104;-70
2021/10/19 03:09:40;;;;;;;16.98;7.47;;;;;;;17.46;78.32;100768.81;4984466;28;20129;-70
2021/10/19 03:12:07;;;;;;;21.95;8.07;;;;;;;17.46;78.06;100766.00;4988290;28;20146;-69
2021/10/19 03:14:33;;;;;;;13.43;7.60;;;;;;;17.49;77.89;100768.19;4986910;28;20507;-73
2021/10/19 03:17:00;;;;;;;15.25;8.18;;;;;;;17.44;77.69;100766.34;4982805;28;20491;-69
2021/10/19 03:19:27;;;;;;;15.93;7.32;;;;;;;17.17;78.15;100730.59;4989663;28;20142;-69
2021/10/19 03:21:54;;;;;;;13.75;6.93;;;;;;;17.45;77.88;100778.44;4991347;28;20494;-69
2021/10/19 03:24:21;;;;;;;18.60;8.60;;;;;;;17.52;77.55;100774.00;4991315;28;20129;-67
2021/10/19 03:26:48;;;;;;;16.80;7.47;;;;;;;17.56;77.64;100781.84;4985376;28;20116;-67
2021/10/19 03:29:15;;;;;;;13.65;7.35;;;;;;;17.58;77.24;100788.84;4990658;28;20137;-68
2021/10/19 03:31:41;;;;;;;14.45;7.15;;;;;;;17.53;77.53;100783.31;4987409;28;20081;-67
2021/10/19 03:34:09;;;;;;;14.40;7.32;;;;;;;17.61;77.15;100788.19;4993071;28;20129;-63
2021/10/19 03:36:35;;;;;;;24.48;7.53;;;;;;;17.62;76.90;100784.22;4987086;28;20137;-63
2021/10/19 03:39:02;;;;;;;16.48;7.45;;;;;;;17.61;76.89;100782.56;4988457;28;20137;-63
2021/10/19 03:41:29;;;;;;;15.18;7.18;;;;;;;17.58;76.91;100777.53;4987910;28;20574;-63
2021/10/19 03:43:56;;;;;;;15.43;7.90;;;;;;;17.61;76.73;100778.91;4990935;28;20078;-62
2021/10/19 03:46:23;;;;;;;14.45;7.20;;;;;;;17.60;76.98;100772.41;4987863;28;20104;-62
2021/10/19 03:48:50;;;;;;;10.73;5.88;;;;;;;17.55;77.47;100778.19;4993631;28;20054;-65
2021/10/19 03:51:17;;;;;;;16.10;6.15;;;;;;;17.44;77.38;100759.84;4983300;28;20074;-66
2021/10/19 03:53:44;;;;;;;11.75;6.25;;;;;;;17.56;76.81;100760.09;4991158;28;20096;-64
2021/10/19 03:56:11;;;;;;;13.60;7.32;;;;;;;17.51;76.94;100772.34;4970599;28;20502;-63
2021/10/19 03:58:38;;;;;;;13.15;6.35;;;;;;;17.63;77.02;100788.69;4986746;28;20463;-63
2021/10/19 04:01:05;;;;;;;16.08;6.22;;;;;;;17.57;76.99;100775.84;4984839;28;20085;-64
2021/10/19 04:03:32;;;;;;;13.90;7.45;;;;;;;17.50;77.17;100773.53;4990507;28;20077;-64
2021/10/19 04:05:59;;;;;;;13.70;7.20;;;;;;;17.37;77.07;100763.13;4987235;28;20054;-63
2021/10/19 04:08:25;;;;;;;13.65;5.63;;;;;;;17.45;77.57;100770.81;4979906;28;20046;-62
2021/10/19 04:10:52;;;;;;;8.82;6.00;;;;;;;17.39;77.34;100779.72;4987184;28;20137;-62
2021/10/19 04:13:20;;;;;;;10.02;5.93;;;;;;;17.45;77.46;100778.44;4990135;28;20145;-62
2021/10/19 04:15:47;;;;;;;10.48;5.68;;;;;;;17.43;77.19;100792.88;4989277;28;20050;-62
2021/10/19 04:18:14;;;;;;;13.13;6.97;;;;;;;17.45;77.49;100784.94;4988075;28;20073;-62
2021/10/19 04:20:41;;;;;;;10.48;5.35;;;;;;;17.47;77.18;100784.59;4989981;28;20440;-63
2021/10/19 04:23:08;;;;;;;15.57;7.80;;;;;;;17.39;77.25;100769.25;4992061;28;20077;-62
2021/10/19 04:25:35;;;;;;;10.30;5.32;;;;;;;17.42;77.09;100790.38;4990957;28;20129;-62
2021/10/19 04:28:01;;;;;;;8.15;4.95;;;;;;;17.21;76.82;100754.19;4990989;28;20085;-63
2021/10/19 04:30:28;;;;;;;12.30;6.30;;;;;;;17.41;77.07;100783.06;4985410;28;20124;-62
2021/10/19 04:32:55;;;;;;;16.63;6.68;;;;;;;17.31;76.92;100772.88;4981423;28;20047;-62
2021/10/19 04:35:26;;;;;;;11.32;6.25;;;;;;;17.42;77.30;100796.84;4973392;28;20057;-62
2021/10/19 04:37:53;;;;;;;15.65;6.60;;;;;;;17.39;76.83;100782.56;4983985;28;20070;-62
2021/10/19 04:40:20;;;;;;;10.77;5.78;;;;;;;17.44;76.75;100779.63;4987030;28;20076;-61
2021/10/19 04:42:47;;;;;;;11.48;5.32;;;;;;;17.52;76.71;100793.78;4986012;28;20137;-62
2021/10/19 04:45:16;;;;;;;30.15;7.57;;;;;;;17.56;76.66;100791.13;4988109;28;20149;-62
2021/10/19 04:47:44;;;;;;;16.08;7.28;;;;;;;17.58;76.71;100794.50;4991881;28;20116;-63
2021/10/19 04:50:11;;;;;;;10.10;5.25;;;;;;;17.62;76.27;100795.50;4990395;28;20129;-63
2021/10/19 04:52:38;;;;;;;13.43;6.15;;;;;;;17.57;76.43;100787.16;4986714;28;20078;-62
2021/10/19 04:55:05;;;;;;;12.15;7.55;;;;;;;17.64;76.42;100796.03;4983378;28;20140;-66
2021/10/19 04:57:32;;;;;;;13.30;6.35;;;;;;;17.67;76.35;100803.00;4986924;28;20089;-65
2021/10/19 04:59:59;;;;;;;12.70;6.03;;;;;;;17.51;76.23;100785.63;4990592;28;20046;-62
2021/10/19 05:02:26;;;;;;;12.32;6.30;;;;;;;17.42;75.75;100765.81;4980608;28;20137;-62
2021/10/19 05:04:52;;;;;;;11.90;6.88;;;;;;;17.74;75.55;100823.16;4986271;28;20502;-61
2021/10/19 05:07:19;;;;;;;10.60;7.13;;;;;;;17.76;75.81;100818.06;4990196;28;20613;-60
2021/10/19 05:09:46;;;;;;;16.15;7.45;;;;;;;17.76;75.35;100816.06;4986872;28;20096;-61
2021/10/19 05:12:13;;;;;;;11.50;6.35;;;;;;;17.76;75.42;100807.59;4990560;28;20097;-63
2021/10/19 05:14:40;;;;;;;11.57;6.18;;;;;;;17.75;75.32;100816.38;4988039;28;20052;-63
2021/10/19 05:17:07;;;;;;;10.63;6.38;;;;;;;17.71;75.26;100823.81;4978934;28;20074;-61
2021/10/19 05:19:33;;;;;;;15.55;6.53;;;;;;;17.64;75.22;100812.97;4985261;28;20080;-64
2021/10/19 05:22:00;;;;;;;15.07;6.43;;;;;;;17.68;75.22;100816.81;4986489;28;20056;-61
2021/10/19 05:24:27;;;;;;;13.80;6.25;;;;;;;17.65;75.30;100810.97;4985407;28;20700;-62
2021/10/19 05:26:54;;;;;;;8.85;5.15;;;;;;;17.55;75.63;100797.94;4987902;28;20613;-65
2021/10/19 05:29:21;;;;;;;12.27;6.20;;;;;;;17.50;75.51;100803.72;4985195;28;20548;-62
2021/10/19 05:31:48;;;;;;;10.85;5.65;;;;;;;17.58;75.38;100817.09;4982181;28;20465;-64
2021/10/19 05:34:15;;;;;;;10.80;6.53;;;;;;;17.54;75.20;100818.88;4984905;28;20074;-65
2021/10/19 05:36:42;;;;;;;13.73;6.68;;;;;;;17.36;75.30;100780.38;4988919;28;20134;-62
2021/10/19 05:39:08;;;;;;;19.25;7.50;;;;;;;17.46;75.09;100794.22;4988124;28;20065;-62
2021/10/19 05:41:35;;;;;;;13.38;8.07;;;;;;;17.20;75.45;100757.34;4987162;28;20131;-61
2021/10/19 05:44:02;;;;;;;13.07;6.22;;;;;;;17.57;75.33;100815.38;4993762;28;20145;-62
2021/10/19 05:46:29;;;;;;;10.32;6.20;;;;;;;17.58;75.39;100805.78;4992009;28;20081;-62
2021/10/19 05:48:57;;;;;;;12.10;5.70;;;;;;;17.52;75.47;100801.41;4988220;28;20159;-64
2021/10/19 05:51:24;;;;;;;14.68;5.65;;;;;;;17.50;75.58;100803.72;4988702;28;20236;-63
2021/10/19 05:53:51;;;;;;;11.80;6.88;;;;;;;17.31;75.65;100792.63;4977766;28;20113;-63
2021/10/19 05:56:17;;;;;;;9.85;5.30;;;;;;;17.23;75.85;100791.41;4993432;28;20078;-62
2021/10/19 05:58:44;;;;;;;14.38;6.15;;;;;;;17.24;76.31;100800.72;4990642;28;20468;-62
2021/10/19 06:01:11;;;;;;;10.85;5.95;;;;;;;17.18;76.53;100802.81;4981638;28;20375;-62
2021/10/19 06:03:38;;;;;;;12.05;6.00;;;;;;;17.16;76.21;100815.56;4986168;28;20046;-62
2021/10/19 06:06:13;;;;;;;15.57;6.50;;;;;;;16.96;76.61;100783.06;4988351;28;20038;-62
2021/10/19 06:08:40;;;;;;;;;;;;;;;16.83;77.38;100796.03;4984776;28;20132;-62
2021/10/19 06:11:07;;;;;;;17.85;6.75;;;;;;;16.91;77.11;100802.91;4989965;28;19928;-62
2021/10/19 06:13:34;;;;;;;13.32;5.93;;;;;;;16.71;77.18;100788.06;4991351;28;20078;-62
2021/10/19 06:16:01;;;;;;;10.95;6.47;;;;;;;16.86;77.39;100800.22;4988860;28;20447;-62
2021/10/19 06:18:27;;;;;;;17.25;5.95;;;;;;;16.89;77.37;100805.19;4992718;28;20056;-62
2021/10/19 06:20:54;;;;;;;10.88;5.68;;;;;;;16.85;77.23;100795.69;4992304;28;20058;-62
2021/10/19 06:23:22;;;;;;;8.95;4.68;;;;;;;16.89;77.33;100800.41;4991054;28;20149;-63
2021/10/19 06:25:50;;;;;;;9.77;4.60;;;;;;;16.90;77.24;100804.06;4985446;28;20101;-63
2021/10/19 06:28:16;;;;;;;9.25;5.15;;;;;;;16.91;77.23;100803.72;4990322;28;20550;-63
2021/10/19 06:30:43;;;;;;;11.63;6.18;;;;;;;16.86;76.95;100798.22;4990550;28;20137;-63
2021/10/19 06:33:10;;;;;;;8.40;5.57;;;;;;;16.94;77.45;100805.91;4991611;28;20109;-62
2021/10/19 06:35:37;;;;;;;11.80;5.70;;;;;;;16.96;77.45;100805.63;4986918;28;20079;-63
2021/10/19 06:38:04;;;;;;;10.43;5.35;;;;;;;16.96;77.01;100805.63;4988605;28;20080;-63
2021/10/19 06:40:31;;;;;;;9.00;5.07;;;;;;;16.98;77.08;100803.28;4987318;28;20051;-63
2021/10/19 06:42:58;;;;;;;12.55;5.47;;;;;;;16.97;76.80;100804.47;4988866;28;20141;-62
2021/10/19 06:45:25;;;;;;;12.82;7.25;;;;;;;16.90;77.29;100796.44;4992222;28;20141;-62
2021/10/19 06:47:52;;;;;;;11.63;5.63;;;;;;;16.97;76.81;100807.28;4992042;28;20776;-62
2021/10/19 06:50:19;;;;;;;7.97;4.68;;;;;;;16.95;77.07;100804.75;4992154;28;20129;-62
2021/10/19 06:52:46;;;;;;;10.73;5.93;;;;;;;17.02;76.96;100804.31;4974763;28;20093;-62
2021/10/19 06:55:13;;;;;;;12.70;5.78;;;;;;;17.03;76.44;100806.00;4975648;28;20137;-62
2021/10/19 06:57:41;;;;;;;10.73;6.85;;;;;;;17.00;76.69;100784.06;4991344;28;20125;-63
2021/10/19 07:00:13;;;;;;;12.53;6.17;;;;;;;17.14;76.39;100807.44;4994013;28;20133;-63
2021/10/19 07:02:44;;;;;;;14.32;6.40;;;;;;;17.24;75.95;100806.34;4990558;28;20422;-62
2021/10/19 07:05:11;;;;;;;13.75;7.00;;;;;;;17.16;75.92;100791.03;4988264;28;20113;-64
2021/10/19 07:07:41;;;;;;;14.18;7.20;;;;;;;17.44;75.41;100817.16;4993743;28;20089;-62
2021/10/19 07:10:12;;;;;;;10.00;6.15;;;;;;;17.55;75.42;100816.88;4990536;28;20112;-62
2021/10/19 07:12:39;;;;;;;13.30;7.10;;;;;;;17.66;74.80;100824.78;4985249;28;20129;-62
2021/10/19 07:15:08;;;;;;;13.13;6.70;;;;;;;17.73;75.16;100808.19;4992850;28;20061;-62
2021/10/19 07:17:36;;;;;;;12.20;6.07;;;;;;;17.83;74.95;100806.31;4989238;28;20101;-63
2021/10/19 07:20:07;;;;;;;13.23;5.88;;;;;;;17.88;75.00;100815.50;4991142;28;20050;-63
2021/10/19 07:22:35;;;;;;;11.30;6.70;;;;;;;17.95;74.90;100815.03;4989616;28;20129;-62
2021/10/19 07:25:03;;;;;;;14.85;6.50;;;;;;;17.85;74.50;100781.41;4990940;28;20074;-62
2021/10/19 07:27:35;;;;;;;14.38;5.82;;;;;;;17.94;74.44;100787.91;4988081;28;20060;-63
2021/10/19 07:30:02;;;;;;;19.42;7.25;;;;;;;17.95;74.35;100758.53;4988599;28;20145;-63
2021/10/19 07:32:29;;;;;;;12.43;6.78;;;;;;;18.42;74.07;100829.53;4990162;28;20073;-63
2021/10/19 07:34:56;;;;;;;15.45;6.88;;;;;;;18.54;73.72;100832.56;4989730;28;20098;-62
2021/10/19 07:37:23;;;;;;;10.68;5.95;;;;;;;18.64;73.39;100829.44;4993388;28;20085;-62
2021/10/19 07:39:50;;;;;;;11.02;6.78;;;;;;;18.69;73.54;100840.59;4991931;28;20129;-62
2021/10/19 07:42:17;;;;;;;14.85;6.97;;;;;;;18.73;73.23;100846.47;4989728;28;20133;-63
2021/10/19 07:44:43;;;;;;;10.48;6.03;;;;;;;18.72;73.16;100827.81;4990638;28;20081;-63
2021/10/19 07:47:10;;;;;;;11.25;5.82;;;;;;;18.94;73.12;100841.03;4984036;28;20139;-62
2021/10/19 07:49:37;;;;;;;12.80;6.72;;;;;;;18.95;72.40;100837.03;4987817;28;20039;-65
2021/10/19 07:52:04;;;;;;;11.85;6.15;;;;;;;19.13;72.33;100843.56;4986835;28;20073;-61
2021/10/19 07:54:31;;;;;;;13.93;6.70;;;;;;;19.33;71.47;100848.56;4987184;28;20043;-71
2021/10/19 07:56:58;;;;;;;17.30;6.97;;;;;;;19.61;71.03;100856.72;4987220;28;20077;-72
2021/10/19 07:59:26;;;;;;;12.93;7.07;;;;;;;19.89;70.62;100862.88;4986706;28;20043;-66
2021/10/19 08:01:53;;;;;;;11.40;6.95;;;;;;;20.12;69.92;100867.16;4993227;28;20427;-61
2021/10/19 08:04:20;;;;;;;11.88;6.97;;;;;;;20.28;69.37;100860.97;4992313;28;20060;-62
2021/10/19 08:06:47;;;;;;;12.52;5.82;;;;;;;20.50;68.70;100874.06;4990456;28;20513;-61
2021/10/19 08:09:13;;;;;;;24.98;7.95;;;;;;;20.64;68.17;100868.19;4981494;28;20074;-61
2021/10/19 08:11:40;;;;;;;12.65;6.20;;;;;;;21.01;67.58;100881.50;4990223;28;20687;-61
2021/10/19 08:14:07;;;;;;;11.05;5.60;;;;;;;21.27;67.17;100869.97;4985189;28;20046;-60
2021/10/19 08:16:34;;;;;;;12.05;5.78;;;;;;;21.65;66.70;100880.41;4986959;28;20100;-62
2021/10/19 08:19:01;;;;;;;14.73;6.75;;;;;;;21.92;65.53;100876.13;4979766;28;20051;-62
2021/10/19 08:21:30;;;;;;;12.30;6.30;;;;;;;22.19;64.63;100877.56;4982070;28;20129;-62
2021/10/19 08:23:59;;;;;;;10.77;6.47;;;;;;;22.63;64.27;100875.03;4980318;28;20129;-63
2021/10/19 08:26:30;;;;;;;13.60;6.55;;;;;;;23.13;63.55;100867.31;4985268;28;20092;-61
2021/10/19 08:28:58;;;;;;;11.45;6.13;;;;;;;23.74;62.46;100878.59;4982688;28;20130;-61
2021/10/19 08:31:25;;;;;;;11.05;5.88;;;;;;;24.15;61.65;100862.25;4987759;28;20086;-61
2021/10/19 08:33:53;;;;;;;9.35;5.30;;;;;;;24.79;60.83;100906.81;4987415;28;20460;-61
2021/10/19 08:36:20;;;;;;;11.48;5.22;;;;;;;25.24;59.52;100904.66;4989632;28;20469;-61
2021/10/19 08:38:48;;;;;;;11.23;6.03;;;;;;;25.71;58.82;100910.25;4983092;28;20066;-61
2021/10/19 08:41:17;;;;;;;13.48;5.80;;;;;;;26.20;57.78;100906.78;4983574;28;20086;-61
2021/10/19 08:43:46;;;;;;;15.73;7.22;;;;;;;26.57;56.84;100896.88;4985827;28;20047;-61
2021/10/19 08:46:14;;;;;;;13.30;5.53;;;;;;;26.97;56.29;100912.69;4990391;28;20122;-61
2021/10/19 08:48:42;;;;;;;10.55;5.43;;;;;;;27.15;55.38;100906.09;4982337;28;20078;-61
2021/10/19 08:51:11;;;;;;;8.20;5.23;;;;;;;27.55;53.95;100913.22;4989359;28;20053;-61
2021/10/19 08:53:41;;;;;;;9.18;5.75;;;;;;;27.64;53.07;100912.94;4990058;28;20335;-61
2021/10/19 08:56:09;;;;;;;8.65;5.28;;;;;;;27.79;52.57;100899.63;4984599;28;20129;-61
2021/10/19 08:58:38;;;;;;;8.82;5.35;;;;;;;27.53;51.16;100886.97;4984867;28;20078;-61
2021/10/19 09:01:08;;;;;;;13.65;5.63;;;;;;;27.75;50.77;100907.34;4986097;28;20085;-63
2021/10/19 09:03:48;;;;;;;9.65;5.57;;;;;;;27.49;50.90;100906.19;4987642;28;20171;-61
2021/10/19 09:06:17;;;;;;;10.32;5.28;;;;;;;27.42;50.41;100908.97;4988232;28;20137;-61
2021/10/19 09:09:04;;;;;;;10.15;5.43;;;;;;;27.60;51.10;100900.59;4981676;28;20142;-62
2021/10/19 09:11:43;;;;;;;13.38;5.65;;;;;;;27.97;50.82;100912.19;4986366;28;20536;-62
2021/10/19 09:14:11;;;;;;;14.07;5.80;;;;;;;28.10;49.93;100899.22;4986456;28;20085;-62
2021/10/19 09:16:40;;;;;;;10.40;5.30;;;;;;;28.27;49.16;100914.16;4986482;28;20185;-62
2021/10/19 09:19:11;;;;;;;10.18;5.70;;;;;;;28.49;49.59;100916.09;4984738;28;20108;-62
2021/10/19 09:21:46;;;;;;;8.93;6.03;;;;;;;28.95;48.42;100923.50;4991981;28;20104;-61
2021/10/19 09:24:40;;;;;;;11.75;5.90;;;;;;;28.81;48.21;100912.69;4993675;28;20061;-62
2021/10/19 09:27:11;;;;;;;9.88;5.35;;;;;;;28.87;47.08;100908.25;4987014;28;20122;-61
2021/10/19 09:29:43;;;;;;;11.00;5.53;;;;;;;28.95;47.10;100904.19;4982539;28;20754;-62
2021/10/19 09:32:12;;;;;;;7.72;5.70;;;;;;;28.80;46.85;100896.69;4989727;28;20049;-62
2021/10/19 09:34:41;;;;;;;;;;;;;;;28.76;48.42;100907.34;4991326;28;20129;-62
2021/10/19 09:37:10;;;;;;;9.65;5.45;;;;;;;28.95;47.53;100906.25;4993338;28;20000;-62
2021/10/19 09:39:43;;;;;;;12.15;6.00;;;;;;;28.85;46.67;100893.44;4991942;28;20441;-62
2021/10/19 09:42:23;;;;;;;10.57;5.95;;;;;;;29.02;46.81;100897.72;4988996;28;20149;-62
2021/10/19 09:44:58;;;;;;;20.50;5.90;;;;;;;29.02;45.56;100895.66;4994517;28;20486;-62
2021/10/19 09:47:38;;;;;;;15.30;6.07;;;;;;;29.22;45.92;100890.47;4988353;28;20134;-63
2021/10/19 09:50:07;;;;;;;9.25;5.50;;;;;;;29.14;45.28;100894.53;4993169;28;20108;-62
2021/10/19 09:52:37;;;;;;;12.68;6.07;;;;;;;29.22;45.73;100892.53;4991814;28;20134;-62
2021/10/19 09:55:07;;;;;;;10.95;5.07;;;;;;;29.26;45.37;100891.31;4988887;28;20105;-62
2021/10/19 09:57:38;;;;;;;20.20;6.50;;;;;;;29.27;45.40;100886.41;4988776;28;20058;-62
2021/10/19 10:00:08;;;;;;;19.55;6.68;;;;;;;29.24;44.83;100888.03;4987614;28;20137;-61
2021/10/19 10:02:36;;;;;;;9.32;5.45;;;;;;;29.38;45.38;100906.63;4988694;28;20085;-61
2021/10/19 10:05:04;;;;;;;8.10;5.50;;;;;;;29.35;45.12;100893.03;4989732;28;20047;-61
2021/10/19 10:07:34;;;;;;;10.93;6.38;;;;;;;29.32;44.89;100893.81;4990193;28;20148;-62
2021/10/19 10:10:03;;;;;;;9.13;6.13;;;;;;;29.22;45.33;100893.34;4988029;28;20169;-61
2021/10/19 10:12:33;;;;;;;13.82;8.57;;;;;;;29.03;44.80;100900.19;4989232;28;20538;-61
2021/10/19 10:15:01;;;;;;;14.93;6.95;;;;;;;28.97;45.64;100872.19;4992894;28;20081;-61
2021/10/19 10:17:28;;;;;;;9.50;6.55;;;;;;;28.91;44.95;100903.34;4990599;28;20077;-61
2021/10/19 10:20:06;;;;;;;17.80;9.27;;;;;;;29.07;45.58;100896.53;4983811;28;20142;-61
2021/10/19 10:22:43;;;;;;;11.38;7.38;;;;;;;29.13;45.28;100895.75;4979880;28;20046;-61
2021/10/19 10:25:17;;;;;;;12.35;7.80;;;;;;;29.26;44.89;100893.38;4981522;28;20125;-62
2021/10/19 10:27:44;;;;;;;10.50;6.95;;;;;;;29.54;45.02;100895.63;4985943;28;20608;-62
2021/10/19 10:30:24;;;;;;;10.75;6.50;;;;;;;29.65;44.44;100890.78;4983774;28;20074;-62
2021/10/19 10:32:54;;;;;;;13.05;7.00;;;;;;;29.95;44.82;100884.75;4987405;28;20073;-62
2021/10/19 10:35:24;;;;;;;10.90;6.95;;;;;;;30.25;44.33;100879.91;4981340;28;20105;-63
2021/10/19 10:37:57;;;;;;;10.32;6.53;;;;;;;30.16;43.19;100877.41;4991764;28;20077;-62
2021/10/19 10:40:25;;;;;;;9.57;6.38;;;;;;;30.17;43.25;100887.69;4977686;28;20157;-62
2021/10/19 10:42:52;;;;;;;10.97;5.50;;;;;;;30.30;43.53;100873.75;4987678;28;20089;-62
2021/10/19 10:45:20;;;;;;;8.93;6.25;;;;;;;30.32;42.68;100886.50;4984282;28;20382;-62
2021/10/19 10:47:54;;;;;;;11.15;6.88;;;;;;;30.47;43.03;100883.69;4987751;28;20054;-62
2021/10/19 10:50:21;;;;;;;12.32;7.10;;;;;;;30.72;42.60;100880.81;4983777;28;20082;-62
2021/10/19 10:53:05;;;;;;;10.43;7.03;;;;;;;31.12;42.86;100876.72;4988311;28;20142;-62
2021/10/19 10:55:43;;;;;;;13.63;7.75;;;;;;;31.62;42.65;100880.34;4983059;28;20050;-62
2021/10/19 10:58:20;;;;;;;11.23;7.65;;;;;;;32.01;41.61;100870.72;4989190;28;20125;-61
2021/10/19 11:00:47;;;;;;;11.63;6.82;;;;;;;32.36;40.98;100868.03;4990047;28;20046;-61
2021/10/19 11:03:17;;;;;;;10.73;6.47;;;;;;;32.72;40.49;100869.47;4979585;28;20054;-61
2021/10/19 11:05:59;;;;;;;11.55;6.55;;;;;;;32.32;40.49;100860.22;4989590;28;20455;-61
2021/10/19 11:08:31;;;;;;;13.45;6.85;;;;;;;32.26;39.74;100861.91;4990158;28;20050;-61
2021/10/19 11:11:08;;;;;;;12.07;7.32;;;;;;;32.24;40.21;100849.97;4987103;28;20057;-62
2021/10/19 11:14:00;;;;;;;17.95;6.75;;;;;;;32.53;39.71;100861.34;4986471;28;20454;-61
2021/10/19 11:16:46;;;;;;;10.68;7.07;;;;;;;32.67;38.90;100861.22;4985191;28;20054;-61
2021/10/19 11:19:19;;;;;;;;;;;;;;;32.62;39.38;100855.91;4988643;28;20050;-61
2021/10/19 11:21:50;;;;;;;7.68;5.78;;;;;;;32.85;38.04;100851.56;4987908;28;20004;-62
2021/10/19 11:24:19;;;;;;;11.95;7.57;;;;;;;33.33;37.76;100853.59;4989368;28;20078;-61